Time;durP1;ratioP1;P1;durP2;ratioP2;P2;SDS_P1;SDS_P2;PMS_P1;PMS_P2;Temp;Humidity;BMP_temperature;BMP_pressure;BME280_temperature;BME280_humidity;BME280_pressure;Samples;Min_cycle;Max_cycle;Signal;HPM_P1;HPM_P2
2021/10/08 00:00:41;;;;;;;11.00;9.50;;;14.00;99.90;;;;;;5097007;28;20458;-73
2021/10/08 00:03:08;;;;;;;11.30;9.40;;;14.00;99.90;;;;;;5096880;28;20452;-72
2021/10/08 00:05:35;;;;;;;11.90;10.50;;;13.90;99.90;;;;;;5096442;28;20914;-72
2021/10/08 00:08:02;;;;;;;11.33;10.13;;;13.90;99.90;;;;;;5096477;28;20468;-72
2021/10/08 00:10:29;;;;;;;12.07;9.87;;;13.90;99.90;;;;;;5096716;28;20762;-72
2021/10/08 00:12:57;;;;;;;11.47;9.90;;;13.90;99.90;;;;;;5096815;28;20488;-73
2021/10/08 00:15:24;;;;;;;11.53;10.33;;;13.80;99.90;;;;;;5096447;28;20972;-73
2021/10/08 00:17:50;;;;;;;12.30;10.17;;;13.80;99.90;;;;;;5096482;28;20475;-73
2021/10/08 00:20:18;;;;;;;12.60;11.07;;;13.70;99.90;;;;;;5096798;28;20522;-72
2021/10/08 00:22:46;;;;;;;11.73;10.53;;;13.70;99.90;;;;;;5096244;28;20499;-73
2021/10/08 00:25:13;;;;;;;11.80;10.23;;;13.70;99.90;;;;;;5095449;28;20462;-73
2021/10/08 00:27:40;;;;;;;10.33;9.27;;;13.60;99.90;;;;;;5096140;28;20529;-73
2021/10/08 00:30:09;;;;;;;12.00;10.43;;;13.60;99.90;;;;;;5096160;28;20511;-72
2021/10/08 00:32:35;;;;;;;14.40;11.87;;;13.60;99.90;;;;;;5096165;28;20487;-73
2021/10/08 00:35:02;;;;;;;13.17;10.70;;;13.60;99.90;;;;;;5096226;28;20464;-73
2021/10/08 00:37:29;;;;;;;12.97;11.57;;;13.50;99.90;;;;;;5096090;28;20935;-73
2021/10/08 00:39:55;;;;;;;11.87;10.63;;;13.50;99.90;;;;;;5096204;28;20468;-73
2021/10/08 00:42:26;;;;;;;13.27;11.60;;;13.50;99.90;;;;;;5096166;28;20539;-73
2021/10/08 00:44:53;;;;;;;12.40;10.83;;;13.50;99.90;;;;;;5096542;28;20456;-73
2021/10/08 00:47:21;;;;;;;11.97;10.87;;;13.40;99.90;;;;;;5096575;28;20553;-72
2021/10/08 00:49:49;;;;;;;13.70;11.60;;;13.40;99.90;;;;;;5096543;28;20473;-73
2021/10/08 00:52:15;;;;;;;12.40;11.20;;;13.40;99.90;;;;;;5096051;28;20458;-73
2021/10/08 00:54:42;;;;;;;18.30;11.23;;;13.30;99.90;;;;;;5096428;28;20471;-73
2021/10/08 00:57:09;;;;;;;14.37;12.87;;;13.40;99.90;;;;;;5096034;28;20926;-73
2021/10/08 00:59:36;;;;;;;13.33;11.90;;;13.30;99.90;;;;;;5096520;28;20460;-73
2021/10/08 01:02:05;;;;;;;13.43;11.37;;;13.20;99.90;;;;;;5095986;28;20499;-73
2021/10/08 01:04:35;;;;;;;14.27;12.00;;;13.20;99.90;;;;;;5096284;28;20498;-73
2021/10/08 01:07:02;;;;;;;13.13;11.27;;;13.20;99.90;;;;;;5095852;28;20769;-73
2021/10/08 01:09:28;;;;;;;13.03;11.63;;;13.20;99.90;;;;;;5095686;28;20514;-73
2021/10/08 01:11:55;;;;;;;14.23;11.43;;;13.20;99.90;;;;;;5095332;28;20449;-73
2021/10/08 01:14:22;;;;;;;14.17;12.67;;;13.10;99.90;;;;;;5095680;28;20484;-73
2021/10/08 01:16:49;;;;;;;14.97;12.90;;;13.10;99.90;;;;;;5095068;28;20953;-73
2021/10/08 01:19:16;;;;;;;15.97;12.60;;;13.10;99.90;;;;;;5095434;28;20458;-73
2021/10/08 01:21:45;;;;;;;13.80;12.50;;;13.10;99.90;;;;;;5095371;28;20458;-73
2021/10/08 01:24:11;;;;;;;15.30;12.60;;;13.00;99.90;;;;;;5095420;28;20439;-73
2021/10/08 01:26:38;;;;;;;18.93;12.90;;;13.00;99.90;;;;;;5095482;28;20844;-73
2021/10/08 01:29:09;;;;;;;14.57;12.90;;;13.00;99.90;;;;;;5094982;28;20463;-73
2021/10/08 01:31:35;;;;;;;14.10;11.93;;;13.00;99.90;;;;;;5095163;28;20533;-73
2021/10/08 01:34:02;;;;;;;15.70;13.00;;;13.00;99.90;;;;;;5095265;28;20850;-73
2021/10/08 01:36:29;;;;;;;15.00;12.03;;;13.00;99.90;;;;;;5094566;28;20525;-73
2021/10/08 01:38:57;;;;;;;14.13;12.63;;;12.90;99.90;;;;;;5095153;28;20458;-73
2021/10/08 01:41:24;;;;;;;13.93;11.63;;;12.90;99.90;;;;;;5094937;28;20487;-73
2021/10/08 01:43:52;;;;;;;14.47;12.10;;;12.90;99.90;;;;;;5094575;28;20476;-73
2021/10/08 01:46:19;;;;;;;13.13;11.60;;;12.90;99.90;;;;;;5095233;28;20493;-73
2021/10/08 01:48:45;;;;;;;14.27;11.53;;;12.80;99.90;;;;;;5094689;28;20938;-73
2021/10/08 01:51:12;;;;;;;14.50;12.50;;;12.80;99.90;;;;;;5095415;28;20457;-73
2021/10/08 01:53:39;;;;;;;14.77;11.43;;;12.80;99.90;;;;;;5094920;28;20483;-73
2021/10/08 01:56:07;;;;;;;14.23;12.73;;;12.80;99.90;;;;;;5094760;28;20460;-73
2021/10/08 01:58:34;;;;;;;15.27;12.37;;;12.80;99.90;;;;;;5095298;28;20456;-73
2021/10/08 02:01:01;;;;;;;17.10;11.63;;;12.70;99.90;;;;;;5094858;28;20464;-73
2021/10/08 02:03:28;;;;;;;15.40;12.07;;;12.70;99.90;;;;;;5094978;28;20590;-73
2021/10/08 02:05:54;;;;;;;15.80;12.87;;;12.70;99.90;;;;;;5094816;28;20557;-73
2021/10/08 02:08:21;;;;;;;12.90;11.50;;;12.70;99.90;;;;;;5095327;28;20483;-73
2021/10/08 02:10:48;;;;;;;12.10;10.80;;;12.60;99.90;;;;;;5098596;28;20468;-73
2021/10/08 02:13:18;;;;;;;13.93;12.17;;;12.60;99.90;;;;;;5098754;28;20482;-73
2021/10/08 02:15:44;;;;;;;14.80;12.60;;;12.60;99.90;;;;;;5095662;28;20675;-73
2021/10/08 02:18:11;;;;;;;16.93;13.63;;;12.60;99.90;;;;;;5095494;28;20478;-73
2021/10/08 02:20:38;;;;;;;15.23;13.30;;;12.60;99.90;;;;;;5095305;28;20454;-73
2021/10/08 02:23:05;;;;;;;15.47;12.83;;;12.50;99.90;;;;;;5095044;28;20481;-73
2021/10/08 02:25:31;;;;;;;15.13;13.20;;;12.50;99.90;;;;;;5094933;28;20459;-73
2021/10/08 02:27:58;;;;;;;16.40;13.33;;;12.50;99.90;;;;;;5094910;28;20501;-73
2021/10/08 02:30:26;;;;;;;15.43;13.53;;;12.50;99.90;;;;;;5094810;28;20467;-73
2021/10/08 02:32:53;;;;;;;16.93;13.03;;;12.50;99.90;;;;;;5094518;28;20508;-73
2021/10/08 02:35:19;;;;;;;14.97;13.33;;;12.50;99.90;;;;;;5094524;28;20467;-73
2021/10/08 02:37:46;;;;;;;15.97;13.30;;;12.40;99.90;;;;;;5094266;28;20458;-73
2021/10/08 02:40:13;;;;;;;15.07;12.53;;;12.40;99.90;;;;;;5094369;28;20462;-73
2021/10/08 02:42:40;;;;;;;15.10;13.50;;;12.40;99.90;;;;;;5094576;28;20489;-73
2021/10/08 02:45:07;;;;;;;15.23;13.63;;;12.40;99.90;;;;;;5094063;28;20455;-73
2021/10/08 02:47:35;;;;;;;17.37;13.17;;;12.30;99.90;;;;;;5094577;28;20478;-73
2021/10/08 02:50:02;;;;;;;16.03;13.33;;;12.30;99.90;;;;;;5096972;28;20459;-73
2021/10/08 02:52:28;;;;;;;16.53;12.80;;;12.30;99.90;;;;;;5098342;28;20937;-72
2021/10/08 02:54:55;;;;;;;16.90;14.17;;;12.30;99.90;;;;;;5098518;28;20549;-73
2021/10/08 02:57:22;;;;;;;17.13;13.70;;;12.30;99.90;;;;;;5098311;28;20480;-73
2021/10/08 02:59:48;;;;;;;17.80;13.33;;;12.20;99.90;;;;;;5098273;28;20464;-73
2021/10/08 03:02:15;;;;;;;18.77;14.53;;;12.30;99.90;;;;;;5097934;28;20489;-73
2021/10/08 03:04:43;;;;;;;17.60;13.40;;;12.30;99.90;;;;;;5098354;28;20511;-73
2021/10/08 03:07:10;;;;;;;18.20;14.20;;;12.30;99.90;;;;;;5097891;28;20461;-73
2021/10/08 03:09:37;;;;;;;19.00;14.83;;;12.30;99.90;;;;;;5098250;28;20541;-73
2021/10/08 03:12:04;;;;;;;18.90;13.97;;;12.30;99.90;;;;;;5098087;28;20468;-72
2021/10/08 03:14:30;;;;;;;17.37;14.30;;;12.30;99.90;;;;;;5097697;28;20478;-73
2021/10/08 03:16:57;;;;;;;22.23;14.93;;;12.30;99.90;;;;;;5097961;28;20450;-73
2021/10/08 03:19:24;;;;;;;17.63;14.20;;;12.30;99.90;;;;;;5097660;28;20923;-73
2021/10/08 03:21:52;;;;;;;16.23;13.67;;;12.30;99.90;;;;;;5097663;28;20459;-73
2021/10/08 03:24:18;;;;;;;17.80;14.00;;;12.30;99.90;;;;;;5097408;28;20884;-73
2021/10/08 03:26:45;;;;;;;16.53;13.27;;;12.30;99.90;;;;;;5098095;28;20458;-73
2021/10/08 03:29:12;;;;;;;17.20;14.80;;;12.30;99.90;;;;;;5097614;28;20469;-72
2021/10/08 03:31:38;;;;;;;19.63;14.37;;;12.30;99.90;;;;;;5097360;28;20457;-72
2021/10/08 03:34:05;;;;;;;17.77;13.60;;;12.30;99.90;;;;;;5097189;28;20474;-73
2021/10/08 03:36:40;;;;;;;18.33;14.17;;;12.30;99.90;;;;;;5097621;28;20520;-73
2021/10/08 03:39:08;;;;;;;18.53;14.07;;;12.30;99.90;;;;;;5097178;28;20445;-72
2021/10/08 03:41:37;;;;;;;18.77;13.97;;;12.30;99.90;;;;;;5097469;28;20454;-73
2021/10/08 03:44:04;;;;;;;18.00;15.03;;;12.30;99.90;;;;;;5097104;28;20787;-73
2021/10/08 03:46:37;;;;;;;19.67;14.40;;;12.30;99.90;;;;;;5097493;28;20458;-73
2021/10/08 03:49:14;;;;;;;18.70;14.67;;;12.30;99.90;;;;;;5097086;28;20436;-72
2021/10/08 03:51:42;;;;;;;23.57;17.20;;;12.20;99.90;;;;;;5096854;28;20889;-72
2021/10/08 03:54:11;;;;;;;19.33;15.00;;;12.20;99.90;;;;;;5097004;28;20481;-73
2021/10/08 03:56:38;;;;;;;20.60;16.17;;;12.10;99.90;;;;;;5097199;28;20455;-72
2021/10/08 03:59:05;;;;;;;25.60;18.37;;;12.10;99.90;;;;;;5096844;28;20472;-73
2021/10/08 04:01:32;;;;;;;26.43;17.63;;;12.10;99.90;;;;;;5096989;28;20514;-73
2021/10/08 04:03:58;;;;;;;24.30;17.57;;;12.10;99.90;;;;;;5096752;28;20461;-72
2021/10/08 04:06:25;;;;;;;28.43;18.87;;;12.20;99.90;;;;;;5096572;28;20525;-72
2021/10/08 04:08:52;;;;;;;29.53;20.97;;;12.20;99.90;;;;;;5097018;28;20791;-72
2021/10/08 04:11:20;;;;;;;34.27;20.30;;;12.20;99.90;;;;;;5096928;28;20454;-72
2021/10/08 04:13:47;;;;;;;28.87;20.60;;;12.30;99.90;;;;;;5096384;28;20470;-72
2021/10/08 04:16:13;;;;;;;33.37;22.60;;;12.30;99.90;;;;;;5096840;28;20465;-73
2021/10/08 04:18:40;;;;;;;30.43;22.17;;;12.30;99.90;;;;;;5096638;28;20940;-72
2021/10/08 04:21:07;;;;;;;33.83;23.70;;;12.40;99.90;;;;;;5097017;28;20463;-73
2021/10/08 04:23:33;;;;;;;33.87;22.77;;;12.40;99.90;;;;;;5096272;28;20485;-72
2021/10/08 04:26:00;;;;;;;33.17;22.70;;;12.50;99.90;;;;;;5095954;28;20923;-72
2021/10/08 04:28:28;;;;;;;31.30;21.73;;;12.50;99.90;;;;;;5096499;28;20467;-72
2021/10/08 04:30:55;;;;;;;34.20;22.40;;;12.40;99.90;;;;;;5096610;28;20466;-72
2021/10/08 04:33:24;;;;;;;33.37;23.03;;;12.40;99.90;;;;;;5096143;28;20466;-73
2021/10/08 04:35:51;;;;;;;33.80;24.40;;;12.50;99.90;;;;;;5096257;28;20457;-72
2021/10/08 04:38:18;;;;;;;35.20;23.90;;;12.50;99.90;;;;;;5096424;28;20451;-72
2021/10/08 04:40:45;;;;;;;34.93;23.93;;;12.50;99.90;;;;;;5095928;28;20451;-72
2021/10/08 04:43:12;;;;;;;33.97;23.97;;;12.50;99.90;;;;;;5096059;28;20452;-72
2021/10/08 04:45:40;;;;;;;30.90;23.33;;;12.60;99.90;;;;;;5096007;28;20462;-72
2021/10/08 04:48:07;;;;;;;35.50;24.20;;;12.60;99.90;;;;;;5096055;28;20454;-72
2021/10/08 04:50:34;;;;;;;37.00;24.77;;;12.60;99.90;;;;;;5095635;28;20451;-72
2021/10/08 04:53:11;;;;;;;34.30;25.07;;;12.60;99.90;;;;;;5095777;28;20460;-72
2021/10/08 04:55:38;;;;;;;34.50;25.10;;;12.60;99.90;;;;;;5095705;28;20474;-72
2021/10/08 04:58:04;;;;;;;33.00;24.50;;;12.60;99.90;;;;;;5095487;28;20460;-72
2021/10/08 05:00:31;;;;;;;33.83;24.07;;;12.60;99.90;;;;;;5095254;28;20458;-73
2021/10/08 05:03:06;;;;;;;36.20;24.83;;;12.60;99.90;;;;;;5095276;28;20462;-73
2021/10/08 05:05:36;;;;;;;37.57;24.80;;;12.60;99.90;;;;;;5095803;28;20912;-73
2021/10/08 05:08:02;;;;;;;32.67;23.30;;;12.60;99.90;;;;;;5096045;28;20987;-73
2021/10/08 05:10:29;;;;;;;35.50;24.30;;;12.60;99.90;;;;;;5096611;28;20912;-73
2021/10/08 05:12:56;;;;;;;35.50;23.57;;;12.60;99.90;;;;;;5096289;28;20941;-72
2021/10/08 05:15:23;;;;;;;36.07;24.80;;;12.60;99.90;;;;;;5098273;28;20482;-72
2021/10/08 05:17:50;;;;;;;35.13;24.80;;;12.60;99.90;;;;;;5096371;28;20462;-72
2021/10/08 05:20:18;;;;;;;36.30;25.00;;;12.60;99.90;;;;;;5095968;28;20477;-72
2021/10/08 05:22:44;;;;;;;39.70;25.63;;;12.60;99.90;;;;;;5095003;28;20879;-72
2021/10/08 05:25:11;;;;;;;40.43;25.90;;;12.50;99.90;;;;;;5095578;28;20450;-72
2021/10/08 05:27:38;;;;;;;36.77;25.67;;;12.50;99.90;;;;;;5095342;28;20458;-72
2021/10/08 05:30:06;;;;;;;35.73;25.87;;;12.50;99.90;;;;;;5094943;28;20533;-72
2021/10/08 05:32:33;;;;;;;38.63;26.60;;;12.50;99.90;;;;;;5095311;28;20525;-72
2021/10/08 05:35:02;;;;;;;35.60;25.20;;;12.50;99.90;;;;;;5095101;28;20495;-72
2021/10/08 05:37:30;;;;;;;37.70;26.10;;;12.50;99.90;;;;;;5095158;28;20464;-72
2021/10/08 05:39:57;;;;;;;41.07;26.77;;;12.50;99.90;;;;;;5095324;28;20477;-72
2021/10/08 05:42:24;;;;;;;39.37;26.83;;;12.50;99.90;;;;;;5094822;28;20783;-72
2021/10/08 05:44:51;;;;;;;40.57;26.67;;;12.50;99.90;;;;;;5094709;28;20803;-72
2021/10/08 05:47:18;;;;;;;39.77;25.70;;;12.50;99.90;;;;;;5094682;28;20458;-72
2021/10/08 05:49:44;;;;;;;38.40;27.40;;;12.40;99.90;;;;;;5094883;28;20463;-72
2021/10/08 05:52:11;;;;;;;39.83;27.77;;;12.40;99.90;;;;;;5094837;28;20458;-72
2021/10/08 05:54:40;;;;;;;36.80;25.00;;;12.40;99.90;;;;;;5094472;28;20474;-72
2021/10/08 05:57:09;;;;;;;39.97;26.13;;;12.30;99.90;;;;;;5094702;28;20458;-72
2021/10/08 05:59:36;;;;;;;40.77;26.43;;;12.40;99.90;;;;;;5094730;28;20460;-72
2021/10/08 06:02:03;;;;;;;41.07;27.57;;;12.30;99.90;;;;;;5094544;28;20527;-72
2021/10/08 06:04:29;;;;;;;38.50;26.17;;;12.40;99.90;;;;;;5094950;28;20466;-72
2021/10/08 06:06:58;;;;;;;39.63;25.67;;;12.30;99.90;;;;;;5094660;28;20534;-72
2021/10/08 06:09:25;;;;;;;38.63;25.43;;;12.30;99.90;;;;;;5094763;28;20458;-72
2021/10/08 06:11:53;;;;;;;37.93;25.53;;;12.30;99.90;;;;;;5094460;28;20960;-72
2021/10/08 06:14:22;;;;;;;39.87;27.67;;;12.30;99.90;;;;;;5094553;28;20561;-72
2021/10/08 06:16:49;;;;;;;35.37;25.37;;;12.30;99.90;;;;;;5094671;28;20931;-73
2021/10/08 06:19:16;;;;;;;40.03;26.70;;;12.30;99.90;;;;;;5094387;28;20472;-72
2021/10/08 06:21:45;;;;;;;39.53;27.20;;;12.30;99.90;;;;;;5094536;28;20462;-72
2021/10/08 06:24:12;;;;;;;35.57;24.93;;;12.30;99.90;;;;;;5096049;28;20468;-72
2021/10/08 06:26:38;;;;;;;41.37;24.77;;;12.30;99.90;;;;;;5098668;28;20455;-72
2021/10/08 06:29:06;;;;;;;37.50;27.17;;;12.30;99.90;;;;;;5098532;28;20469;-72
2021/10/08 06:31:33;;;;;;;34.80;23.97;;;12.30;99.90;;;;;;5098359;28;20458;-72
2021/10/08 06:34:00;;;;;;;35.93;25.57;;;12.30;99.90;;;;;;5097887;28;20459;-72
2021/10/08 06:36:26;;;;;;;34.90;25.60;;;12.30;99.90;;;;;;5097986;28;20474;-72
2021/10/08 06:38:53;;;;;;;34.70;24.77;;;12.30;99.90;;;;;;5098216;28;20501;-72
2021/10/08 06:41:20;;;;;;;37.13;25.80;;;12.30;99.90;;;;;;5098066;28;20492;-72
2021/10/08 06:43:47;;;;;;;33.43;24.17;;;12.30;99.90;;;;;;5098425;28;20535;-72
2021/10/08 06:46:15;;;;;;;39.43;26.17;;;12.30;99.90;;;;;;5098381;28;20454;-72
2021/10/08 06:48:42;;;;;;;37.60;26.10;;;12.30;99.90;;;;;;5098763;28;20458;-72
2021/10/08 06:51:08;;;;;;;40.00;25.40;;;12.30;99.90;;;;;;5097886;28;20817;-72
2021/10/08 06:53:35;;;;;;;34.80;24.33;;;12.30;99.90;;;;;;5098518;28;20469;-72
2021/10/08 06:56:02;;;;;;;38.30;26.23;;;12.30;99.90;;;;;;5097959;28;20474;-72
2021/10/08 06:58:29;;;;;;;35.10;26.03;;;12.30;99.90;;;;;;5097827;28;20454;-72
2021/10/08 07:00:56;;;;;;;33.47;25.90;;;12.30;99.90;;;;;;5097649;28;20779;-71
2021/10/08 07:03:25;;;;;;;36.20;26.00;;;12.30;99.90;;;;;;5098104;28;20484;-71
2021/10/08 07:05:52;;;;;;;34.80;25.30;;;12.40;99.90;;;;;;5097404;28;20445;-72
2021/10/08 07:08:19;;;;;;;35.23;24.33;;;12.50;99.90;;;;;;5097614;28;20794;-71
2021/10/08 07:10:46;;;;;;;32.90;24.90;;;12.50;99.90;;;;;;5097631;28;20813;-72
2021/10/08 07:13:12;;;;;;;37.90;25.37;;;12.60;99.90;;;;;;5097663;28;20458;-72
2021/10/08 07:15:39;;;;;;;33.87;24.43;;;12.60;99.90;;;;;;5097543;28;20481;-71
2021/10/08 07:18:10;;;;;;;34.63;22.87;;;12.60;99.90;;;;;;5097392;28;20461;-72
2021/10/08 07:20:38;;;;;;;35.03;24.67;;;12.70;99.90;;;;;;5097413;28;20489;-72
2021/10/08 07:23:07;;;;;;;32.00;24.27;;;12.80;99.90;;;;;;5096938;28;20478;-71
2021/10/08 07:25:33;;;;;;;39.43;24.90;;;12.90;99.90;;;;;;5097235;28;20454;-72
2021/10/08 07:28:00;;;;;;;32.40;24.03;;;13.00;99.90;;;;;;5097623;28;20459;-73
2021/10/08 07:30:27;;;;;;;35.20;23.70;;;13.20;99.90;;;;;;5097583;28;20467;-73
2021/10/08 07:32:54;;;;;;;26.03;21.23;;;13.30;99.90;;;;;;5097378;28;20511;-73
2021/10/08 07:35:21;;;;;;;29.70;22.67;;;13.40;99.90;;;;;;5096823;28;20495;-72
2021/10/08 07:37:49;;;;;;;30.77;20.77;;;13.50;99.90;;;;;;5097182;28;20459;-72
2021/10/08 07:40:18;;;;;;;28.03;21.40;;;13.60;99.90;;;;;;5097041;28;20914;-72
2021/10/08 07:42:45;;;;;;;26.77;20.83;;;13.80;99.90;;;;;;5096785;28;20460;-72
2021/10/08 07:45:12;;;;;;;28.70;21.80;;;13.90;99.90;;;;;;5096945;28;20450;-72
2021/10/08 07:47:39;;;;;;;27.30;21.40;;;14.00;99.90;;;;;;5096653;28;20495;-73
2021/10/08 07:50:07;;;;;;;38.23;21.60;;;14.10;99.90;;;;;;5097172;28;20489;-73
2021/10/08 07:52:34;;;;;;;27.03;20.43;;;14.30;99.90;;;;;;5097006;28;20457;-73
2021/10/08 07:55:03;;;;;;;27.77;21.17;;;14.50;99.90;;;;;;5096989;28;20568;-73
2021/10/08 07:57:30;;;;;;;26.27;20.30;;;14.60;99.90;;;;;;5096762;28;20896;-73
2021/10/08 07:59:57;;;;;;;26.73;21.03;;;14.70;99.90;;;;;;5097189;28;20465;-73
2021/10/08 08:02:23;;;;;;;28.00;21.93;;;14.80;99.90;;;;;;5096739;28;20897;-73
2021/10/08 08:04:51;;;;;;;27.73;19.90;;;14.90;99.90;;;;;;5096940;28;20825;-73
2021/10/08 08:07:17;;;;;;;29.20;21.50;;;14.90;99.90;;;;;;5096530;28;20472;-73
2021/10/08 08:09:44;;;;;;;23.67;19.20;;;15.00;99.90;;;;;;5096569;28;20458;-73
2021/10/08 08:12:12;;;;;;;28.13;19.73;;;15.00;99.90;;;;;;5096763;28;20563;-73
2021/10/08 08:14:39;;;;;;;21.53;18.70;;;14.90;99.90;;;;;;5096416;28;20456;-73
2021/10/08 08:17:06;;;;;;;24.10;19.53;;;14.90;99.90;;;;;;5097214;28;20458;-73
2021/10/08 08:19:32;;;;;;;24.60;19.20;;;14.90;99.90;;;;;;5096858;28;20473;-73
2021/10/08 08:21:59;;;;;;;29.70;19.93;;;14.90;99.90;;;;;;5096224;28;20814;-73
2021/10/08 08:24:26;;;;;;;24.70;18.47;;;14.90;99.90;;;;;;5096558;28;20442;-73
2021/10/08 08:26:53;;;;;;;24.20;20.10;;;14.90;99.90;;;;;;5096435;28;20457;-73
2021/10/08 08:29:21;;;;;;;23.07;17.90;;;14.90;99.90;;;;;;5096119;28;20529;-73
2021/10/08 08:31:47;;;;;;;25.40;18.93;;;14.90;99.90;;;;;;5096433;28;20768;-73
2021/10/08 08:34:14;;;;;;;25.00;18.50;;;15.00;99.90;;;;;;5096332;28;20456;-73
2021/10/08 08:36:41;;;;;;;31.40;19.07;;;15.10;99.90;;;;;;5096494;28;20489;-73
2021/10/08 08:39:10;;;;;;;26.17;19.57;;;15.10;99.90;;;;;;5095844;28;20466;-73
2021/10/08 08:41:36;;;;;;;27.90;18.87;;;15.20;99.90;;;;;;5095855;28;20465;-72
2021/10/08 08:44:04;;;;;;;25.43;18.37;;;15.30;99.90;;;;;;5095916;28;20549;-73
2021/10/08 08:46:33;;;;;;;35.00;19.20;;;15.50;99.90;;;;;;5095172;28;20761;-73
2021/10/08 08:49:01;;;;;;;25.30;18.27;;;15.60;99.90;;;;;;5095481;28;20449;-73
2021/10/08 08:51:27;;;;;;;25.50;17.63;;;15.80;99.90;;;;;;5095908;28;20454;-73
2021/10/08 08:53:54;;;;;;;28.00;17.77;;;16.00;99.90;;;;;;5096035;28;20485;-71
2021/10/08 08:56:21;;;;;;;26.57;17.33;;;16.10;99.90;;;;;;5095778;28;20486;-71
2021/10/08 08:58:48;;;;;;;21.67;16.80;;;16.30;99.90;;;;;;5096159;28;20464;-74
2021/10/08 09:01:15;;;;;;;21.53;15.83;;;16.40;99.90;;;;;;5096398;28;20581;-73
2021/10/08 09:04:01;;;;;;;22.50;14.83;;;16.50;99.90;;;;;;5096432;28;20458;-73
2021/10/08 09:06:32;;;;;;;22.63;14.60;;;16.60;99.90;;;;;;5096255;28;20474;-73
2021/10/08 09:08:58;;;;;;;21.03;14.83;;;16.70;99.90;;;;;;5096057;28;20549;-73
2021/10/08 09:11:38;;;;;;;17.67;13.53;;;16.80;99.90;;;;;;5095474;28;20911;-72
2021/10/08 09:14:18;;;;;;;18.50;12.90;;;16.90;99.90;;;;;;5096257;28;20754;-72
2021/10/08 09:17:06;;;;;;;18.03;13.47;;;17.00;99.90;;;;;;5096171;28;20481;-74
2021/10/08 09:19:53;;;;;;;16.50;13.03;;;17.10;99.90;;;;;;5095901;28;20436;-74
2021/10/08 09:22:22;;;;;;;16.30;11.93;;;17.20;99.90;;;;;;5095236;28;20480;-73
2021/10/08 09:24:49;;;;;;;17.03;12.03;;;17.20;99.90;;;;;;5095380;28;20450;-73
2021/10/08 09:27:18;;;;;;;16.13;12.37;;;17.30;99.90;;;;;;5095679;28;20449;-73
2021/10/08 09:29:49;;;;;;;14.33;11.00;;;17.40;99.90;;;;;;5095645;28;20784;-73
2021/10/08 09:32:17;;;;;;;16.90;11.90;;;17.50;99.90;;;;;;5095219;28;20926;-73
2021/10/08 09:34:43;;;;;;;15.53;11.20;;;17.50;99.90;;;;;;5094921;28;20461;-73
2021/10/08 09:37:13;;;;;;;16.03;10.57;;;17.60;99.90;;;;;;5094994;28;20496;-73
2021/10/08 09:39:40;;;;;;;14.83;10.13;;;17.60;99.90;;;;;;5095468;28;20460;-73
2021/10/08 09:42:11;;;;;;;15.97;10.77;;;17.60;99.90;;;;;;5095107;28;20799;-73
2021/10/08 09:44:43;;;;;;;14.17;10.00;;;17.60;99.90;;;;;;5094936;28;20470;-72
2021/10/08 09:47:12;;;;;;;21.00;9.40;;;17.60;99.90;;;;;;5095331;28;20434;-72
2021/10/08 09:49:40;;;;;;;15.73;9.70;;;17.70;99.90;;;;;;5094970;28;20457;-72
2021/10/08 09:52:24;;;;;;;21.63;9.37;;;17.70;99.90;;;;;;5094714;28;20458;-72
2021/10/08 09:54:51;;;;;;;17.47;8.97;;;17.80;99.90;;;;;;5094687;28;20533;-72
2021/10/08 09:57:21;;;;;;;18.13;8.90;;;17.70;99.90;;;;;;5094739;28;20788;-72
2021/10/08 09:59:50;;;;;;;11.30;7.87;;;17.80;99.90;;;;;;5094866;28;20790;-72
2021/10/08 10:02:17;;;;;;;15.23;8.10;;;17.80;99.90;;;;;;5094806;28;20489;-72
2021/10/08 10:04:48;;;;;;;12.83;8.50;;;17.80;99.90;;;;;;5094728;28;20803;-72
2021/10/08 10:07:16;;;;;;;12.30;7.37;;;17.70;99.90;;;;;;5094296;28;20450;-72
2021/10/08 10:09:44;;;;;;;20.23;8.70;;;17.80;99.90;;;;;;5094361;28;20458;-72
2021/10/08 10:12:11;;;;;;;13.83;9.43;;;17.80;99.90;;;;;;5094005;28;20550;-73
2021/10/08 10:14:40;;;;;;;16.17;8.13;;;17.70;99.90;;;;;;5094514;28;20773;-73
2021/10/08 10:17:09;;;;;;;12.17;7.40;;;17.70;99.90;;;;;;5094530;28;20573;-72
2021/10/08 10:19:41;;;;;;;11.20;7.10;;;17.70;99.90;;;;;;5094468;28;20458;-72
2021/10/08 10:22:08;;;;;;;13.00;7.43;;;17.60;99.90;;;;;;5094167;28;20550;-72
2021/10/08 10:24:39;;;;;;;19.97;8.20;;;17.60;99.90;;;;;;5094676;28;20838;-72
2021/10/08 10:27:07;;;;;;;11.23;7.37;;;17.70;99.90;;;;;;5094575;28;20453;-72
2021/10/08 10:29:36;;;;;;;12.20;7.20;;;17.70;99.90;;;;;;5093935;28;20465;-72
2021/10/08 10:32:05;;;;;;;12.07;6.93;;;17.70;99.90;;;;;;5094316;28;20473;-73
2021/10/08 10:34:34;;;;;;;9.77;6.80;;;17.70;99.90;;;;;;5093702;28;20453;-72
2021/10/08 10:37:01;;;;;;;17.03;7.77;;;17.80;99.90;;;;;;5094126;28;20499;-72
2021/10/08 10:39:28;;;;;;;19.57;8.40;;;17.90;99.90;;;;;;5094472;28;20485;-72
2021/10/08 10:42:16;;;;;;;14.93;8.50;;;17.90;99.90;;;;;;5094034;28;20519;-72
2021/10/08 10:45:06;;;;;;;17.07;8.00;;;17.90;99.90;;;;;;5094278;28;20448;-72
2021/10/08 10:47:34;;;;;;;15.80;8.67;;;17.90;99.90;;;;;;5094050;28;20524;-74
2021/10/08 10:50:12;;;;;;;25.57;9.90;;;17.90;99.90;;;;;;5094739;28;20449;-72
2021/10/08 10:52:49;;;;;;;18.03;8.83;;;18.00;99.90;;;;;;5094648;28;20438;-75
2021/10/08 10:55:16;;;;;;;14.47;8.60;;;17.90;99.90;;;;;;5094063;28;20433;-74
2021/10/08 10:58:08;;;;;;;15.10;9.30;;;18.00;99.90;;;;;;5093784;28;20595;-73
2021/10/08 11:00:59;;;;;;;14.83;8.00;;;18.10;99.90;;;;;;5094019;28;20479;-73
2021/10/08 11:03:34;;;;;;;12.17;8.70;;;18.30;99.90;;;;;;5093739;28;20449;-73
2021/10/08 11:06:18;;;;;;;14.10;8.90;;;18.40;99.90;;;;;;5094107;28;20449;-73
2021/10/08 11:09:15;;;;;;;12.60;7.90;;;18.40;99.90;;;;;;5093464;28;20441;-74
2021/10/08 11:11:43;;;;;;;13.80;7.80;;;18.50;99.90;;;;;;5097062;28;20513;-73
2021/10/08 11:14:19;;;;;;;15.23;8.83;;;18.60;99.90;;;;;;5097849;28;20523;-74
2021/10/08 11:16:46;;;;;;;14.10;7.70;;;18.70;99.90;;;;;;5098110;28;20938;-73
2021/10/08 11:19:38;;;;;;;15.77;7.70;;;18.80;99.90;;;;;;5097640;28;20460;-73
2021/10/08 11:22:06;;;;;;;13.50;8.10;;;18.90;99.90;;;;;;5096907;28;20512;-74
2021/10/08 11:24:33;;;;;;;14.73;8.00;;;19.00;99.90;;;;;;5097958;28;20449;-74
2021/10/08 11:27:01;;;;;;;16.67;8.30;;;19.10;99.90;;;;;;5098622;28;20492;-73
2021/10/08 11:29:31;;;;;;;11.20;8.30;;;19.10;99.90;;;;;;5097594;28;20462;-73
2021/10/08 11:32:07;;;;;;;13.90;8.53;;;19.20;99.90;;;;;;5097539;28;20471;-73
2021/10/08 11:34:33;;;;;;;9.73;7.43;;;19.30;99.90;;;;;;5097534;28;20451;-73
2021/10/08 11:37:01;;;;;;;15.07;7.00;;;19.30;99.90;;;;;;5097162;28;20819;-73
2021/10/08 11:39:29;;;;;;;13.80;8.10;;;19.40;99.90;;;;;;5097037;28;20470;-73
2021/10/08 11:42:01;;;;;;;19.10;11.13;;;19.50;99.90;;;;;;5097096;28;20850;-73
2021/10/08 11:44:29;;;;;;;13.50;8.70;;;19.60;99.90;;;;;;5097510;28;20434;-73
2021/10/08 11:47:04;;;;;;;17.93;8.40;;;19.80;99.90;;;;;;5097129;28;20529;-73
2021/10/08 11:49:46;;;;;;;10.97;7.63;;;20.10;99.90;;;;;;5097430;28;20438;-73
2021/10/08 11:52:13;;;;;;;18.60;7.40;;;20.70;99.90;;;;;;5096581;28;20430;-73
2021/10/08 11:54:40;;;;;;;10.73;7.77;;;21.70;99.90;;;;;;5096961;28;20535;-73
2021/10/08 11:57:10;;;;;;;16.67;8.53;;;22.80;99.90;;;;;;5096902;28;20484;-73
2021/10/08 11:59:37;;;;;;;20.03;8.20;;;24.00;99.90;;;;;;5096712;28;20500;-73
2021/10/08 12:02:10;;;;;;;12.03;7.73;;;25.20;99.90;;;;;;5096557;28;20549;-70
2021/10/08 12:04:37;;;;;;;16.47;7.97;;;26.30;96.50;;;;;;5096554;28;20508;-71
2021/10/08 12:07:08;;;;;;;27.77;10.30;;;27.30;92.90;;;;;;5098855;28;20457;-69
2021/10/08 12:09:35;;;;;;;13.47;7.17;;;28.30;86.70;;;;;;5099342;28;20464;-70
2021/10/08 12:12:09;;;;;;;24.33;10.73;;;28.70;75.80;;;;;;5097460;28;20476;-69
2021/10/08 12:14:42;;;;;;;21.77;8.97;;;29.20;71.20;;;;;;5096301;28;20457;-69
2021/10/08 12:17:12;;;;;;;11.30;6.67;;;29.70;67.60;;;;;;5097404;28;20768;-71
2021/10/08 12:19:39;;;;;;;12.67;7.17;;;30.20;59.40;;;;;;5096245;28;20470;-69
2021/10/08 12:22:06;;;;;;;13.27;7.77;;;30.60;57.10;;;;;;5096323;28;20461;-70
2021/10/08 12:24:33;;;;;;;12.00;6.63;;;31.00;55.30;;;;;;5096153;28;20449;-69
2021/10/08 12:27:01;;;;;;;14.03;7.70;;;31.10;51.90;;;;;;5097465;28;20449;-69
2021/10/08 12:29:39;;;;;;;12.80;7.37;;;31.30;51.30;;;;;;5096592;28;20453;-69
2021/10/08 12:32:12;;;;;;;10.30;7.00;;;31.50;50.70;;;;;;5101956;28;20496;-69
2021/10/08 12:34:41;;;;;;;11.43;7.13;;;31.80;50.20;;;;;;5097143;28;20479;-69